Time;durP1;ratioP1;P1;durP2;ratioP2;P2;SDS_P1;SDS_P2;PMS_P1;PMS_P2;Temp;Humidity;BMP_temperature;BMP_pressure;BME280_temperature;BME280_humidity;BME280_pressure;Samples;Min_cycle;Max_cycle;Signal;HPM_P1;HPM_P2
2021/01/23 00:00:01;;;;;;;3.40;1.92;;;0.20;98.00;;;;;;5074514;28;20109;-73
2021/01/23 00:02:26;;;;;;;3.60;1.80;;;0.20;98.00;;;;;;5072934;28;20378;-74
2021/01/23 00:04:52;;;;;;;2.60;1.60;;;0.20;98.00;;;;;;5073933;28;20456;-74
2021/01/23 00:07:18;;;;;;;2.60;1.70;;;0.20;98.00;;;;;;5074948;28;20051;-75
2021/01/23 00:09:44;;;;;;;3.72;1.60;;;0.20;98.00;;;;;;5073599;28;20041;-73
2021/01/23 00:12:09;;;;;;;2.78;1.83;;;0.20;98.00;;;;;;5074910;28;20032;-73
2021/01/23 00:14:35;;;;;;;2.63;1.60;;;0.20;98.00;;;;;;5073155;28;20173;-72
2021/01/23 00:17:01;;;;;;;3.13;1.83;;;0.20;98.00;;;;;;5081381;28;20447;-73
2021/01/23 00:19:26;;;;;;;3.08;2.00;;;0.20;98.00;;;;;;5087948;28;20357;-74
2021/01/23 00:21:52;;;;;;;3.58;2.28;;;0.20;98.00;;;;;;5087050;28;20028;-74
2021/01/23 00:24:18;;;;;;;3.00;2.00;;;0.20;98.00;;;;;;5097819;28;20027;-74
2021/01/23 00:26:47;;;;;;;3.88;2.20;;;0.20;98.00;;;;;;5087475;28;20020;-75
2021/01/23 00:29:14;;;;;;;3.92;2.60;;;0.20;98.00;;;;;;5078033;28;20044;-74
2021/01/23 00:31:41;;;;;;;3.33;2.03;;;0.20;98.00;;;;;;5077286;28;20366;-75
2021/01/23 00:34:07;;;;;;;3.15;2.15;;;0.20;98.00;;;;;;5078189;28;20107;-74
2021/01/23 00:36:33;;;;;;;2.70;1.88;;;0.20;98.00;;;;;;5078568;28;20028;-74
2021/01/23 00:38:59;;;;;;;3.42;2.20;;;0.20;98.00;;;;;;5079058;28;20017;-74
2021/01/23 00:41:26;;;;;;;3.42;2.00;;;0.20;98.00;;;;;;5077917;28;20036;-74
2021/01/23 00:43:53;;;;;;;3.50;2.05;;;0.20;98.00;;;;;;5077937;28;20028;-74
2021/01/23 00:46:21;;;;;;;3.10;2.05;;;0.20;98.00;;;;;;5078567;28;20020;-74
2021/01/23 00:48:50;;;;;;;2.53;1.67;;;0.10;98.00;;;;;;5077184;28;20021;-75
2021/01/23 00:51:16;;;;;;;3.60;2.05;;;0.20;98.00;;;;;;5076597;28;20056;-74
2021/01/23 00:53:44;;;;;;;3.08;1.95;;;0.20;98.00;;;;;;5077098;28;20055;-74
2021/01/23 00:56:10;;;;;;;2.67;1.88;;;0.10;98.00;;;;;;5077685;28;20321;-74
2021/01/23 00:58:35;;;;;;;2.42;1.67;;;0.10;98.00;;;;;;5079862;28;20040;-73
2021/01/23 01:01:02;;;;;;;2.20;1.60;;;0.10;98.00;;;;;;5077408;28;20055;-75
2021/01/23 01:03:27;;;;;;;2.40;1.60;;;0.10;98.00;;;;;;5077961;28;20063;-74
2021/01/23 01:05:53;;;;;;;2.50;1.70;;;0.20;98.00;;;;;;5077858;28;20035;-75
2021/01/23 01:08:19;;;;;;;2.58;1.70;;;0.10;98.00;;;;;;5075256;28;20025;-74
2021/01/23 01:10:47;;;;;;;1.83;1.30;;;0.10;98.00;;;;;;5078008;28;20334;-74
2021/01/23 01:13:13;;;;;;;2.38;1.63;;;0.10;98.00;;;;;;5077025;28;20024;-75
2021/01/23 01:15:39;;;;;;;2.97;1.90;;;0.10;98.00;;;;;;5077710;28;20325;-75
2021/01/23 01:18:06;;;;;;;1.75;1.25;;;0.10;98.00;;;;;;5076288;28;20035;-75
2021/01/23 01:20:31;;;;;;;2.72;1.50;;;0.10;98.00;;;;;;5077273;28;20028;-75
2021/01/23 01:22:57;;;;;;;3.13;1.90;;;0.20;98.00;;;;;;5078435;28;20031;-75
2021/01/23 01:25:23;;;;;;;2.60;1.70;;;0.10;98.00;;;;;;5076028;28;20024;-74
2021/01/23 01:27:48;;;;;;;2.55;1.63;;;0.10;98.00;;;;;;5076709;28;20052;-75
2021/01/23 01:30:15;;;;;;;4.28;2.45;;;0.10;98.00;;;;;;5080995;28;20036;-75
2021/01/23 01:32:40;;;;;;;4.10;2.53;;;0.10;98.00;;;;;;5077139;28;20052;-75
2021/01/23 01:35:07;;;;;;;3.70;2.65;;;0.20;98.00;;;;;;5075954;28;20052;-75
2021/01/23 01:37:32;;;;;;;4.32;2.50;;;0.20;98.00;;;;;;5077240;28;20032;-75
2021/01/23 01:39:58;;;;;;;5.63;2.78;;;0.10;98.00;;;;;;5084117;28;20036;-74
2021/01/23 01:42:23;;;;;;;3.17;2.10;;;0.10;98.00;;;;;;5076627;28;20017;-74
2021/01/23 01:44:50;;;;;;;3.60;2.28;;;0.10;98.00;;;;;;5076871;28;20031;-75
2021/01/23 01:47:17;;;;;;;4.45;2.25;;;0.10;98.00;;;;;;5077076;28;20039;-75
2021/01/23 01:49:43;;;;;;;2.45;1.85;;;0.10;98.00;;;;;;5077027;28;20505;-75
2021/01/23 01:52:09;;;;;;;3.33;2.15;;;0.00;98.00;;;;;;5091739;28;20024;-75
2021/01/23 01:54:36;;;;;;;3.05;2.10;;;0.00;98.00;;;;;;5081570;28;20024;-75
2021/01/23 01:57:02;;;;;;;3.28;2.20;;;0.00;98.00;;;;;;5076917;28;20024;-74
2021/01/23 01:59:27;;;;;;;3.60;1.95;;;0.00;98.00;;;;;;5083229;28;20081;-75
2021/01/23 02:02:08;;;;;;;2.40;1.77;;;0.00;98.00;;;;;;5097228;28;20016;-75
2021/01/23 02:04:47;;;;;;;2.92;2.00;;;0.00;98.00;;;;;;5076355;28;20022;-74
2021/01/23 02:07:33;;;;;;;2.58;1.75;;;0.00;98.00;;;;;;5076530;28;20329;-75
2021/01/23 02:10:10;;;;;;;5.03;2.80;;;0.00;98.00;;;;;;5073000;28;20032;-74
2021/01/23 02:13:08;;;;;;;4.60;2.95;;;0.00;98.00;;;;;;5076323;28;20036;-75
2021/01/23 02:15:43;;;;;;;7.18;2.95;;;0.00;98.00;;;;;;5062037;28;20057;-75
2021/01/23 02:18:12;;;;;;;5.88;2.83;;;0.00;98.00;;;;;;5076424;28;20077;-74
2021/01/23 02:21:11;;;;;;;5.10;2.90;;;0.00;98.00;;;;;;5076394;28;20075;-74
2021/01/23 02:23:45;;;;;;;3.95;2.53;;;0.00;98.00;;;;;;5074176;28;20048;-75
2021/01/23 02:26:16;;;;;;;5.32;2.72;;;0.00;98.00;;;;;;5067809;28;20025;-75
2021/01/23 02:28:45;;;;;;;3.58;2.45;;;0.10;98.00;;;;;;5075366;28;20076;-74
2021/01/23 02:31:22;;;;;;;4.03;2.75;;;0.00;98.00;;;;;;5072642;28;20025;-74
2021/01/23 02:33:51;;;;;;;5.18;2.90;;;0.00;98.00;;;;;;5073638;28;20079;-75
2021/01/23 02:36:18;;;;;;;4.43;2.60;;;0.00;98.00;;;;;;5074297;28;20405;-74
2021/01/23 02:38:47;;;;;;;3.80;2.55;;;0.10;98.00;;;;;;5079648;28;20027;-75
2021/01/23 02:41:13;;;;;;;4.25;2.45;;;0.00;98.00;;;;;;5074832;28;20116;-73
2021/01/23 02:43:42;;;;;;;4.05;2.42;;;0.00;98.00;;;;;;5075563;28;20103;-74
2021/01/23 02:46:09;;;;;;;4.97;2.55;;;0.00;98.00;;;;;;5075443;28;20050;-74
2021/01/23 02:48:38;;;;;;;3.47;2.10;;;0.00;98.00;;;;;;5085583;28;20025;-75
2021/01/23 02:51:08;;;;;;;4.22;2.70;;;0.00;98.00;;;;;;5075356;28;20434;-74
2021/01/23 02:53:36;;;;;;;11.32;2.97;;;0.00;98.00;;;;;;5066577;28;20024;-75
2021/01/23 02:56:14;;;;;;;4.22;2.80;;;0.00;98.00;;;;;;5075953;28;20099;-74
2021/01/23 02:58:42;;;;;;;5.05;3.03;;;0.00;98.00;;;;;;5074456;28;20094;-74
2021/01/23 03:01:08;;;;;;;4.88;3.00;;;0.00;98.00;;;;;;5074566;28;20040;-74
2021/01/23 03:03:35;;;;;;;12.63;3.63;;;0.00;98.00;;;;;;5073844;28;20085;-73
2021/01/23 03:06:04;;;;;;;11.20;4.10;;;0.00;98.00;;;;;;5074267;28;20134;-73
2021/01/23 03:08:31;;;;;;;6.13;3.20;;;0.00;98.00;;;;;;5073924;28;20024;-73
2021/01/23 03:10:57;;;;;;;35.03;3.90;;;0.00;98.00;;;;;;5059581;28;20074;-73
2021/01/23 03:13:23;;;;;;;4.57;2.20;;;0.00;98.00;;;;;;5056747;28;20115;-73
2021/01/23 03:15:48;;;;;;;3.83;2.58;;;0.00;98.00;;;;;;5073866;28;20111;-74
2021/01/23 03:18:14;;;;;;;6.75;2.95;;;-0.10;98.00;;;;;;5072682;28;20159;-74
2021/01/23 03:20:40;;;;;;;3.47;2.35;;;-0.10;98.00;;;;;;5074564;28;20158;-74
2021/01/23 03:23:06;;;;;;;6.47;2.85;;;-0.10;98.00;;;;;;5075035;28;20373;-74
2021/01/23 03:25:32;;;;;;;3.90;2.10;;;-0.10;98.00;;;;;;5073633;28;20028;-74
2021/01/23 03:27:58;;;;;;;3.03;2.00;;;-0.10;98.00;;;;;;5087656;28;20115;-74
2021/01/23 03:30:25;;;;;;;3.17;2.28;;;-0.10;98.00;;;;;;5075027;28;20028;-74
2021/01/23 03:32:52;;;;;;;3.78;2.55;;;-0.10;98.00;;;;;;5073533;28;20608;-74
2021/01/23 03:35:18;;;;;;;3.60;2.70;;;-0.10;98.00;;;;;;5074732;28;20032;-74
2021/01/23 03:37:44;;;;;;;4.85;3.30;;;-0.10;98.00;;;;;;5077265;28;20017;-73
2021/01/23 03:40:11;;;;;;;5.10;2.90;;;-0.10;98.00;;;;;;5072217;28;20041;-73
2021/01/23 03:42:37;;;;;;;4.57;3.13;;;-0.10;98.00;;;;;;5075098;28;20020;-73
2021/01/23 03:45:05;;;;;;;4.38;2.90;;;-0.10;98.00;;;;;;5074961;28;20108;-74
2021/01/23 03:47:30;;;;;;;3.72;2.45;;;-0.10;98.00;;;;;;5079717;28;20031;-74
2021/01/23 03:49:56;;;;;;;3.95;2.70;;;-0.10;98.00;;;;;;5074579;28;20025;-74
2021/01/23 03:52:21;;;;;;;4.85;2.67;;;-0.10;98.00;;;;;;5077082;28;20037;-74
2021/01/23 03:54:47;;;;;;;6.60;2.15;;;-0.10;98.00;;;;;;5077942;28;20064;-74
2021/01/23 03:57:13;;;;;;;2.60;1.83;;;-0.10;98.00;;;;;;5078730;28;20107;-74
2021/01/23 03:59:38;;;;;;;3.42;2.25;;;-0.20;98.00;;;;;;5078339;28;20056;-75
2021/01/23 04:02:04;;;;;;;2.28;1.70;;;-0.10;98.00;;;;;;5079245;28;20728;-74
2021/01/23 04:04:30;;;;;;;2.70;1.80;;;-0.10;98.00;;;;;;5078869;28;20067;-74
2021/01/23 04:06:56;;;;;;;2.90;1.85;;;-0.10;98.00;;;;;;5076554;28;20363;-74
2021/01/23 04:09:22;;;;;;;3.40;1.83;;;-0.10;98.00;;;;;;5075446;28;20036;-74
2021/01/23 04:11:49;;;;;;;3.65;2.33;;;-0.10;98.00;;;;;;5079000;28;20341;-74
2021/01/23 04:14:15;;;;;;;2.80;1.83;;;-0.10;98.00;;;;;;5078388;28;20021;-73
2021/01/23 04:16:41;;;;;;;3.05;2.15;;;-0.10;98.00;;;;;;5081230;28;20522;-73
2021/01/23 04:19:07;;;;;;;2.92;2.00;;;-0.10;98.00;;;;;;5078430;28;20016;-74
2021/01/23 04:21:32;;;;;;;2.83;1.85;;;-0.10;98.00;;;;;;5078245;28;20145;-73
2021/01/23 04:23:58;;;;;;;2.28;1.50;;;-0.10;98.00;;;;;;5073406;28;20017;-73
2021/01/23 04:26:24;;;;;;;2.35;1.75;;;-0.10;98.00;;;;;;5070993;28;20039;-73
2021/01/23 04:28:53;;;;;;;2.75;1.88;;;-0.10;98.00;;;;;;5078270;28;20032;-73
2021/01/23 04:31:18;;;;;;;3.45;2.08;;;-0.10;98.00;;;;;;5077536;28;20161;-74
2021/01/23 04:33:44;;;;;;;2.78;1.52;;;-0.10;98.00;;;;;;5077140;28;20645;-73
2021/01/23 04:36:09;;;;;;;2.17;1.50;;;-0.10;98.00;;;;;;5078491;28;20318;-74
2021/01/23 04:38:35;;;;;;;2.97;1.67;;;-0.10;98.00;;;;;;5074699;28;20052;-74
2021/01/23 04:41:01;;;;;;;2.08;1.55;;;-0.10;98.00;;;;;;5076282;28;20111;-73
2021/01/23 04:43:26;;;;;;;2.03;1.40;;;-0.10;98.00;;;;;;5078127;28;20029;-73
2021/01/23 04:45:53;;;;;;;1.60;1.30;;;-0.10;98.00;;;;;;5077606;28;20028;-74
2021/01/23 04:48:19;;;;;;;1.40;1.20;;;-0.10;98.00;;;;;;5077268;28;20113;-73
2021/01/23 04:50:46;;;;;;;5.10;1.50;;;-0.10;98.00;;;;;;5076671;28;20433;-74
2021/01/23 04:53:15;;;;;;;1.40;1.20;;;-0.10;98.00;;;;;;5077018;28;20043;-74
2021/01/23 04:55:44;;;;;;;1.50;1.30;;;-0.10;98.00;;;;;;5076931;28;20437;-73
2021/01/23 04:58:10;;;;;;;2.60;1.75;;;-0.10;98.00;;;;;;5076268;28;20056;-74
2021/01/23 05:00:36;;;;;;;4.30;2.40;;;-0.10;98.00;;;;;;5077009;28;20041;-73
2021/01/23 05:03:04;;;;;;;2.58;1.60;;;-0.10;98.00;;;;;;5077564;28;20078;-73
2021/01/23 05:05:31;;;;;;;3.13;1.90;;;0.00;98.00;;;;;;5076105;28;20021;-74
2021/01/23 05:08:08;;;;;;;2.35;1.67;;;0.00;98.00;;;;;;5076193;28;20070;-73
2021/01/23 05:10:34;;;;;;;3.10;1.88;;;0.00;98.00;;;;;;5056575;28;20104;-73
2021/01/23 05:13:00;;;;;;;3.22;1.95;;;0.00;98.00;;;;;;5071461;28;20105;-73
2021/01/23 05:15:33;;;;;;;3.30;1.80;;;0.00;98.00;;;;;;5077411;28;20040;-73
2021/01/23 05:18:09;;;;;;;2.72;1.90;;;0.00;98.00;;;;;;5071019;28;20302;-72
2021/01/23 05:20:52;;;;;;;3.58;1.77;;;0.00;98.00;;;;;;5077049;28;20033;-73
2021/01/23 05:23:28;;;;;;;3.30;1.95;;;-0.10;98.00;;;;;;5068513;28;20097;-74
2021/01/23 05:25:56;;;;;;;2.47;1.63;;;-0.10;98.00;;;;;;5067032;28;20051;-72
2021/01/23 05:28:29;;;;;;;2.47;1.83;;;-0.10;98.00;;;;;;5075484;28;20032;-73
2021/01/23 05:30:55;;;;;;;3.38;2.05;;;-0.10;98.00;;;;;;5076856;28;20020;-73
2021/01/23 05:33:36;;;;;;;2.80;1.90;;;-0.20;98.00;;;;;;5085019;28;20035;-73
2021/01/23 05:36:08;;;;;;;3.50;2.10;;;-0.20;98.00;;;;;;5077176;28;20028;-72
2021/01/23 05:38:35;;;;;;;3.15;2.00;;;-0.20;98.00;;;;;;5073966;28;20040;-72
2021/01/23 05:41:04;;;;;;;4.45;2.00;;;-0.10;98.00;;;;;;5074244;28;20118;-73
2021/01/23 05:43:36;;;;;;;3.25;2.15;;;-0.10;98.00;;;;;;5076687;28;20029;-74
2021/01/23 05:46:07;;;;;;;3.67;2.20;;;0.00;98.00;;;;;;5075878;28;20020;-72
2021/01/23 05:48:34;;;;;;;3.33;2.08;;;0.00;98.00;;;;;;5076207;28;20031;-72
2021/01/23 05:51:01;;;;;;;2.30;1.60;;;-0.10;98.00;;;;;;5076209;28;20020;-74
2021/01/23 05:53:28;;;;;;;4.63;2.13;;;-0.10;98.00;;;;;;5083410;28;20135;-74
2021/01/23 05:55:54;;;;;;;2.50;1.88;;;-0.10;98.00;;;;;;5076980;28;20409;-73
2021/01/23 05:58:20;;;;;;;3.00;1.95;;;0.00;98.00;;;;;;5074607;28;20203;-72
2021/01/23 06:00:48;;;;;;;2.95;1.80;;;0.00;98.00;;;;;;5076080;28;20116;-72
2021/01/23 06:03:15;;;;;;;2.33;1.60;;;-0.10;98.00;;;;;;5083093;28;20028;-72
2021/01/23 06:05:41;;;;;;;3.50;2.20;;;-0.10;98.00;;;;;;5075921;28;20043;-72
2021/01/23 06:08:07;;;;;;;3.33;2.03;;;-0.10;98.00;;;;;;5075529;28;20033;-72
2021/01/23 06:10:34;;;;;;;2.95;1.90;;;-0.10;98.00;;;;;;5074363;28;20632;-74
2021/01/23 06:13:00;;;;;;;2.67;1.83;;;-0.10;98.00;;;;;;5076719;28;20024;-73
2021/01/23 06:15:32;;;;;;;5.05;2.20;;;-0.20;98.00;;;;;;5074420;28;20033;-73
2021/01/23 06:17:58;;;;;;;4.05;2.05;;;-0.10;98.00;;;;;;5075737;28;20362;-73
2021/01/23 06:20:39;;;;;;;2.67;1.88;;;0.00;98.00;;;;;;5074493;28;20077;-73
2021/01/23 06:23:11;;;;;;;2.78;1.90;;;0.00;98.00;;;;;;5064787;28;20413;-73
2021/01/23 06:25:49;;;;;;;4.60;2.05;;;0.10;98.00;;;;;;5075293;28;20035;-73
2021/01/23 06:28:15;;;;;;;2.85;1.90;;;0.10;98.00;;;;;;5074207;28;20352;-74
2021/01/23 06:30:41;;;;;;;4.78;2.30;;;0.00;98.00;;;;;;5075663;28;20025;-72
2021/01/23 06:33:21;;;;;;;2.85;1.92;;;0.10;98.00;;;;;;5076943;28;20021;-73
2021/01/23 06:36:10;;;;;;;4.57;2.20;;;0.10;98.00;;;;;;5075504;28;20465;-73
2021/01/23 06:38:37;;;;;;;3.40;1.88;;;0.00;98.00;;;;;;5072525;28;20413;-72
2021/01/23 06:41:24;;;;;;;3.45;2.10;;;0.00;98.00;;;;;;5076020;28;20032;-72
2021/01/23 06:44:12;;;;;;;6.80;1.70;;;-0.10;98.00;;;;;;5075453;28;20028;-73
2021/01/23 06:46:57;;;;;;;3.55;2.03;;;-0.10;98.00;;;;;;5075297;28;20024;-73
2021/01/23 06:49:23;;;;;;;2.92;1.90;;;0.00;98.00;;;;;;5073516;28;20338;-72
2021/01/23 06:51:49;;;;;;;2.97;1.70;;;0.10;98.00;;;;;;5074452;28;20028;-72
2021/01/23 06:54:20;;;;;;;3.58;1.83;;;0.10;98.00;;;;;;5074272;28;20424;-73
2021/01/23 06:56:52;;;;;;;3.17;2.03;;;0.30;98.00;;;;;;5073843;28;20020;-73
2021/01/23 06:59:21;;;;;;;3.63;2.35;;;0.30;98.00;;;;;;5073570;28;20045;-73
2021/01/23 07:01:54;;;;;;;8.73;2.38;;;0.20;98.00;;;;;;5074423;28;20422;-73
2021/01/23 07:04:20;;;;;;;6.53;2.10;;;0.30;98.00;;;;;;5075383;28;20488;-73
2021/01/23 07:06:45;;;;;;;4.00;2.20;;;0.30;98.00;;;;;;5073689;28;20104;-73
2021/01/23 07:09:11;;;;;;;2.85;1.98;;;0.20;98.00;;;;;;5070772;28;20044;-72
2021/01/23 07:11:41;;;;;;;4.38;2.25;;;0.30;98.00;;;;;;5074280;28;20058;-72
2021/01/23 07:14:08;;;;;;;2.78;1.92;;;0.40;98.00;;;;;;5073429;28;20036;-73
2021/01/23 07:16:36;;;;;;;3.33;2.05;;;0.50;98.00;;;;;;5073423;28;20091;-72
2021/01/23 07:19:05;;;;;;;3.45;2.13;;;0.50;98.00;;;;;;5073832;28;20312;-73
2021/01/23 07:21:33;;;;;;;4.70;2.20;;;0.50;98.00;;;;;;5074386;28;20088;-72
2021/01/23 07:24:00;;;;;;;3.63;2.17;;;0.50;98.00;;;;;;5072458;28;20103;-73
2021/01/23 07:26:26;;;;;;;3.90;2.13;;;0.50;98.00;;;;;;5074497;28;20048;-72
2021/01/23 07:28:54;;;;;;;3.65;2.35;;;0.60;98.00;;;;;;5073469;28;20082;-72
2021/01/23 07:31:25;;;;;;;5.55;2.30;;;0.60;98.00;;;;;;5076025;28;20032;-73
2021/01/23 07:33:52;;;;;;;8.40;3.67;;;0.60;98.00;;;;;;5073953;28;21555;-72
2021/01/23 07:36:38;;;;;;;3.65;2.10;;;0.50;98.00;;;;;;5074155;28;20334;-73
2021/01/23 07:39:05;;;;;;;3.55;1.95;;;0.70;98.00;;;;;;5069604;28;20032;-72
2021/01/23 07:41:32;;;;;;;2.90;1.95;;;0.80;98.00;;;;;;5074465;28;20086;-72
2021/01/23 07:44:03;;;;;;;3.90;2.25;;;0.80;98.00;;;;;;5072302;28;20108;-72
2021/01/23 07:46:41;;;;;;;3.25;1.90;;;0.80;98.00;;;;;;5073973;28;20367;-72
2021/01/23 07:49:09;;;;;;;3.67;1.70;;;0.80;98.00;;;;;;5072530;28;20028;-72
2021/01/23 07:51:34;;;;;;;4.32;2.35;;;0.80;98.00;;;;;;5074210;28;20032;-72
2021/01/23 07:54:11;;;;;;;7.30;3.53;;;0.80;98.00;;;;;;5073200;28;20032;-73
2021/01/23 07:56:49;;;;;;;5.35;2.50;;;0.80;98.00;;;;;;5073838;28;20108;-72
2021/01/23 07:59:14;;;;;;;4.07;2.50;;;0.80;98.00;;;;;;5071915;28;20025;-72
2021/01/23 08:01:40;;;;;;;3.17;2.08;;;0.70;98.00;;;;;;5072492;28;20331;-73
2021/01/23 08:04:06;;;;;;;7.45;1.95;;;0.70;98.00;;;;;;5073827;28;20021;-73
2021/01/23 08:06:31;;;;;;;8.45;2.97;;;0.70;98.00;;;;;;5073786;28;20086;-73
2021/01/23 08:09:17;;;;;;;8.05;3.35;;;0.80;98.00;;;;;;5076928;28;20098;-72
2021/01/23 08:11:42;;;;;;;5.47;2.75;;;0.80;98.00;;;;;;5071712;28;20064;-72
2021/01/23 08:14:13;;;;;;;6.15;2.40;;;0.80;98.00;;;;;;5071769;28;20067;-73
2021/01/23 08:16:52;;;;;;;4.38;2.58;;;0.80;98.00;;;;;;5074291;28;20060;-73
2021/01/23 08:19:18;;;;;;;102.43;47.95;;;1.00;98.00;;;;;;5087075;28;20032;-73
2021/01/23 08:22:03;;;;;;;16.10;7.07;;;0.90;98.00;;;;;;5075827;28;20436;-73
2021/01/23 08:24:34;;;;;;;51.88;27.77;;;1.00;98.00;;;;;;5070384;28;20323;-73
2021/01/23 08:27:20;;;;;;;10.40;5.43;;;1.00;98.00;;;;;;5072946;28;20048;-73
2021/01/23 08:29:47;;;;;;;5.10;3.05;;;1.10;98.00;;;;;;5073998;28;20032;-73
2021/01/23 08:32:14;;;;;;;13.25;7.53;;;1.20;98.00;;;;;;5073369;28;20376;-73
2021/01/23 08:34:42;;;;;;;22.08;13.43;;;1.20;98.00;;;;;;5070209;28;20042;-74
2021/01/23 08:37:08;;;;;;;10.05;7.40;;;1.30;98.00;;;;;;5074491;28;20056;-72
2021/01/23 08:40:00;;;;;;;6.40;3.10;;;1.30;98.00;;;;;;5076510;28;20032;-73
2021/01/23 08:42:26;;;;;;;3.85;2.38;;;1.30;98.00;;;;;;5073158;28;20303;-72
2021/01/23 08:44:53;;;;;;;3.67;2.13;;;1.40;98.00;;;;;;5088807;28;20034;-73
2021/01/23 08:47:21;;;;;;;4.13;1.95;;;1.50;98.00;;;;;;5075710;28;20025;-74
2021/01/23 08:49:47;;;;;;;4.20;2.25;;;1.50;98.00;;;;;;5062503;28;20471;-72
2021/01/23 08:52:12;;;;;;;3.00;1.60;;;1.60;98.00;;;;;;5074563;28;20093;-73
2021/01/23 08:54:40;;;;;;;4.05;2.00;;;1.70;98.00;;;;;;5076787;28;20031;-71
2021/01/23 08:57:08;;;;;;;4.03;2.10;;;1.80;98.00;;;;;;5074822;28;20089;-71
2021/01/23 08:59:34;;;;;;;4.45;2.72;;;1.90;98.00;;;;;;5076369;28;20052;-72
2021/01/23 09:02:00;;;;;;;7.28;4.75;;;2.00;98.00;;;;;;5075734;28;20491;-71
2021/01/23 09:04:25;;;;;;;4.35;1.90;;;2.20;98.00;;;;;;5077320;28;20024;-73
2021/01/23 09:06:51;;;;;;;4.18;2.20;;;2.40;97.30;;;;;;5076920;28;20169;-73
2021/01/23 09:09:16;;;;;;;6.13;2.20;;;2.40;96.20;;;;;;5075565;28;20032;-73
2021/01/23 09:11:43;;;;;;;11.95;5.75;;;2.50;97.10;;;;;;5075563;28;20056;-72
2021/01/23 09:14:11;;;;;;;10.23;6.78;;;2.70;97.30;;;;;;5074746;28;20031;-72
2021/01/23 09:16:37;;;;;;;5.05;3.33;;;2.60;97.80;;;;;;5075103;28;20028;-72
2021/01/23 09:19:02;;;;;;;3.90;1.88;;;2.70;97.90;;;;;;5076651;28;20028;-71
2021/01/23 09:21:28;;;;;;;3.80;1.70;;;2.60;96.40;;;;;;5075595;28;20035;-72
2021/01/23 09:23:54;;;;;;;2.47;1.75;;;2.50;95.70;;;;;;5075242;28;20078;-71
2021/01/23 09:26:19;;;;;;;2.97;1.63;;;2.50;95.60;;;;;;5076077;28;20413;-72
2021/01/23 09:28:45;;;;;;;2.53;1.70;;;2.50;96.40;;;;;;5071546;28;20038;-72
2021/01/23 09:31:11;;;;;;;3.15;1.65;;;2.60;95.90;;;;;;5077437;28;20103;-70
2021/01/23 09:33:37;;;;;;;3.10;1.70;;;2.70;96.40;;;;;;5074202;28;20035;-71
2021/01/23 09:36:03;;;;;;;3.75;1.55;;;2.70;95.80;;;;;;5072908;28;20028;-70
2021/01/23 09:38:29;;;;;;;2.88;1.50;;;2.60;94.90;;;;;;5074061;28;20051;-73
2021/01/23 09:40:54;;;;;;;2.67;1.58;;;2.70;95.40;;;;;;5079183;28;20056;-71
2021/01/23 09:43:20;;;;;;;3.00;1.60;;;2.80;94.50;;;;;;5076448;28;20024;-72
2021/01/23 09:45:46;;;;;;;2.83;1.95;;;2.90;95.90;;;;;;5083445;28;20047;-71
2021/01/23 09:48:11;;;;;;;2.78;1.50;;;3.10;94.90;;;;;;5079969;28;20039;-72
2021/01/23 09:50:38;;;;;;;4.70;1.92;;;3.20;93.90;;;;;;5072903;28;20048;-69
2021/01/23 09:53:04;;;;;;;2.60;1.75;;;3.20;93.90;;;;;;5075058;28;20028;-71
2021/01/23 09:55:30;;;;;;;2.97;1.60;;;3.30;94.90;;;;;;5074444;28;20017;-71
2021/01/23 09:57:56;;;;;;;3.33;1.60;;;3.30;93.60;;;;;;5076950;28;20020;-72
2021/01/23 10:00:22;;;;;;;2.90;1.45;;;3.60;94.40;;;;;;5076944;28;20450;-69
2021/01/23 10:02:47;;;;;;;2.97;1.60;;;3.90;93.80;;;;;;5077055;28;20062;-70
2021/01/23 10:05:13;;;;;;;2.22;1.40;;;4.40;91.80;;;;;;5073974;28;20021;-69
2021/01/23 10:07:39;;;;;;;3.83;1.77;;;4.40;89.60;;;;;;5074721;28;20024;-70
2021/01/23 10:10:05;;;;;;;2.63;1.60;;;4.20;90.50;;;;;;5070567;28;20047;-70
2021/01/23 10:12:32;;;;;;;3.20;1.65;;;4.30;91.00;;;;;;5073229;28;20326;-70
2021/01/23 10:14:58;;;;;;;2.47;1.58;;;4.90;91.20;;;;;;5071354;28;20020;-72
2021/01/23 10:17:24;;;;;;;3.15;1.58;;;5.30;89.70;;;;;;5074183;28;20043;-71
2021/01/23 10:19:50;;;;;;;4.63;2.15;;;5.20;88.40;;;;;;5076515;28;20169;-70
2021/01/23 10:22:19;;;;;;;3.40;1.70;;;5.20;87.20;;;;;;5070290;28;20052;-69
2021/01/23 10:24:45;;;;;;;4.10;2.70;;;4.40;88.80;;;;;;5068288;28;20039;-72
2021/01/23 10:27:13;;;;;;;4.97;2.83;;;4.20;91.40;;;;;;5074616;28;20012;-71
2021/01/23 10:29:39;;;;;;;3.25;1.70;;;4.40;91.90;;;;;;5074171;28;20032;-71
2021/01/23 10:32:05;;;;;;;4.65;2.20;;;4.60;90.50;;;;;;5075516;28;20025;-71
2021/01/23 10:34:31;;;;;;;3.92;2.40;;;4.80;90.70;;;;;;5074555;28;20418;-71
2021/01/23 10:36:56;;;;;;;3.83;2.20;;;4.80;89.80;;;;;;5067327;28;20028;-71
2021/01/23 10:39:22;;;;;;;3.47;1.58;;;5.20;90.10;;;;;;5071910;28;20028;-71
2021/01/23 10:41:48;;;;;;;3.03;1.60;;;5.70;89.20;;;;;;5071634;28;20103;-70
2021/01/23 10:44:14;;;;;;;3.67;2.15;;;5.40;88.40;;;;;;5074398;28;20108;-72
2021/01/23 10:46:40;;;;;;;3.08;1.83;;;5.40;88.70;;;;;;5075073;28;20043;-71
2021/01/23 10:49:06;;;;;;;5.78;2.95;;;5.00;88.90;;;;;;5090197;28;20028;-70
2021/01/23 10:51:33;;;;;;;3.83;1.77;;;4.50;90.30;;;;;;5072903;28;20036;-71
2021/01/23 10:53:58;;;;;;;2.30;1.45;;;4.60;90.60;;;;;;5072413;28;20025;-70
2021/01/23 10:56:24;;;;;;;4.70;2.60;;;4.60;89.70;;;;;;5075210;28;20171;-72
2021/01/23 10:58:50;;;;;;;2.83;1.75;;;5.10;90.20;;;;;;5073665;28;20036;-71
2021/01/23 11:01:16;;;;;;;3.53;2.00;;;5.60;89.30;;;;;;5072915;28;20044;-71
2021/01/23 11:03:43;;;;;;;3.28;1.98;;;6.00;89.20;;;;;;5073332;28;20078;-71
2021/01/23 11:06:09;;;;;;;3.05;1.65;;;6.30;87.90;;;;;;5072685;28;20020;-70
2021/01/23 11:08:36;;;;;;;3.45;2.05;;;6.40;87.10;;;;;;5073231;28;20024;-70
2021/01/23 11:11:04;;;;;;;2.58;1.30;;;6.20;86.10;;;;;;5067442;28;20255;-72
2021/01/23 11:13:31;;;;;;;2.67;1.50;;;5.90;86.10;;;;;;5070196;28;20028;-73
2021/01/23 11:15:58;;;;;;;2.97;1.40;;;5.40;87.90;;;;;;5074191;28;20032;-73
2021/01/23 11:18:23;;;;;;;3.72;1.73;;;5.30;88.30;;;;;;5071999;28;20103;-73
2021/01/23 11:20:51;;;;;;;3.70;1.60;;;5.70;89.50;;;;;;5088962;28;20138;-73
2021/01/23 11:23:17;;;;;;;4.95;1.80;;;5.70;88.70;;;;;;5084060;28;20020;-71
2021/01/23 11:25:43;;;;;;;5.25;2.20;;;5.60;88.80;;;;;;5078305;28;20498;-71
2021/01/23 11:28:08;;;;;;;4.22;2.15;;;5.60;89.40;;;;;;5072899;28;20024;-73
2021/01/23 11:30:35;;;;;;;19.48;6.43;;;5.80;88.80;;;;;;5059638;28;20044;-71
2021/01/23 11:33:00;;;;;;;6.78;3.30;;;5.80;88.50;;;;;;5066869;28;20029;-70
2021/01/23 11:35:26;;;;;;;6.28;3.42;;;5.70;88.00;;;;;;5071130;28;20047;-71
2021/01/23 11:37:52;;;;;;;7.70;4.50;;;6.10;89.00;;;;;;5067199;28;20111;-71
2021/01/23 11:40:17;;;;;;;11.00;5.05;;;6.50;88.50;;;;;;5064237;28;20427;-72
2021/01/23 11:42:43;;;;;;;4.43;2.60;;;6.90;86.40;;;;;;5060572;28;20131;-72
2021/01/23 11:45:10;;;;;;;5.63;2.40;;;7.50;84.90;;;;;;5057509;28;20414;-72
2021/01/23 11:47:36;;;;;;;5.75;2.80;;;8.20;82.90;;;;;;5057307;28;20388;-72
2021/01/23 11:50:04;;;;;;;4.47;2.30;;;8.00;81.50;;;;;;5073242;28;20081;-71
2021/01/23 11:52:30;;;;;;;5.18;2.70;;;7.60;82.80;;;;;;5072331;28;20051;-71
2021/01/23 11:54:56;;;;;;;4.13;2.25;;;7.60;82.70;;;;;;5066796;28;20060;-71
2021/01/23 11:57:21;;;;;;;5.10;2.67;;;7.60;81.20;;;;;;5059199;28;20029;-72
2021/01/23 11:59:47;;;;;;;5.57;3.33;;;7.50;82.60;;;;;;5063765;28;20048;-73
2021/01/23 12:02:13;;;;;;;4.72;2.70;;;7.60;83.70;;;;;;5075888;28;20020;-72
2021/01/23 12:04:38;;;;;;;7.32;3.20;;;7.50;84.40;;;;;;5077794;28;20017;-72
2021/01/23 12:07:07;;;;;;;4.25;2.17;;;7.70;84.20;;;;;;5091003;28;20480;-73
2021/01/23 12:09:32;;;;;;;4.20;2.33;;;7.80;83.10;;;;;;5078525;28;20017;-73
2021/01/23 12:11:58;;;;;;;5.03;2.65;;;7.60;83.40;;;;;;5072927;28;20028;-73
2021/01/23 12:14:24;;;;;;;9.07;5.15;;;7.30;84.50;;;;;;5085125;28;20051;-73
2021/01/23 12:16:49;;;;;;;6.40;3.05;;;7.10;82.60;;;;;;5078750;28;20028;-74
2021/01/23 12:19:15;;;;;;;13.82;7.10;;;6.50;84.30;;;;;;5089820;28;20020;-73
2021/01/23 12:21:41;;;;;;;4.65;2.20;;;6.30;86.70;;;;;;5099080;28;20028;-73
2021/01/23 12:24:07;;;;;;;4.40;2.53;;;6.30;86.30;;;;;;5087574;28;20028;-73
2021/01/23 12:26:36;;;;;;;5.20;3.00;;;6.60;86.10;;;;;;5075506;28;20029;-72
2021/01/23 12:29:02;;;;;;;5.78;2.30;;;6.50;84.60;;;;;;5081248;28;20023;-72
2021/01/23 12:31:28;;;;;;;4.68;2.00;;;6.10;84.80;;;;;;5081384;28;20115;-73
2021/01/23 12:33:53;;;;;;;4.43;1.80;;;5.40;85.10;;;;;;5076740;28;20020;-73
2021/01/23 12:36:21;;;;;;;3.90;2.03;;;5.10;86.70;;;;;;5078260;28;20600;-74
2021/01/23 12:38:47;;;;;;;3.45;1.75;;;5.40;86.90;;;;;;5084875;28;20085;-74
2021/01/23 12:41:17;;;;;;;5.13;1.80;;;5.50;85.90;;;;;;5077441;28;20351;-73
2021/01/23 12:43:42;;;;;;;5.60;2.10;;;5.30;85.50;;;;;;5073965;28;20029;-73
2021/01/23 12:46:08;;;;;;;4.47;2.08;;;4.60;87.20;;;;;;5075932;28;20029;-74
2021/01/23 12:48:34;;;;;;;3.70;2.10;;;4.60;88.50;;;;;;5077311;28;20511;-75
2021/01/23 12:50:59;;;;;;;3.45;2.00;;;4.50;86.70;;;;;;5076729;28;20041;-74
2021/01/23 12:53:25;;;;;;;5.18;2.05;;;4.50;88.60;;;;;;5077284;28;20028;-73
2021/01/23 12:55:51;;;;;;;4.05;2.10;;;5.00;89.00;;;;;;5077650;28;20033;-72
2021/01/23 12:58:18;;;;;;;30.55;13.52;;;5.30;85.90;;;;;;5084942;28;20055;-73